sensor_id;sensor_type;location;lat;lon;timestamp;P1;P2;P0
57623;PMS7003;43448;52.264;20.644;2023-07-22T00:00:01;12;11;
57623;PMS7003;43448;52.264;20.644;2023-07-22T00:10:00;14;12;
57623;PMS7003;43448;52.264;20.644;2023-07-22T00:20:00;11;10;
57623;PMS7003;43448;52.264;20.644;2023-07-22T00:30:01;11;8;
57623;PMS7003;43448;52.264;20.644;2023-07-22T00:40:01;13;10;
57623;PMS7003;43448;52.264;20.644;2023-07-22T00:50:01;9;9;
57623;PMS7003;43448;52.264;20.644;2023-07-22T01:00:01;10;10;
57623;PMS7003;43448;52.264;20.644;2023-07-22T01:10:00;10;10;
57623;PMS7003;43448;52.264;20.644;2023-07-22T01:20:01;10;10;
57623;PMS7003;43448;52.264;20.644;2023-07-22T01:30:01;10;10;
57623;PMS7003;43448;52.264;20.644;2023-07-22T01:40:01;15;13;
57623;PMS7003;43448;52.264;20.644;2023-07-22T01:50:01;11;9;
57623;PMS7003;43448;52.264;20.644;2023-07-22T02:00:01;12;9;
57623;PMS7003;43448;52.264;20.644;2023-07-22T02:10:01;15;12;
57623;PMS7003;43448;52.264;20.644;2023-07-22T02:20:00;12;11;
57623;PMS7003;43448;52.264;20.644;2023-07-22T02:30:01;10;10;
57623;PMS7003;43448;52.264;20.644;2023-07-22T02:40:00;11;11;
57623;PMS7003;43448;52.264;20.644;2023-07-22T02:50:01;7;7;
57623;PMS7003;43448;52.264;20.644;2023-07-22T03:00:01;11;10;
57623;PMS7003;43448;52.264;20.644;2023-07-22T03:10:01;10;10;
57623;PMS7003;43448;52.264;20.644;2023-07-22T03:20:01;9;9;
57623;PMS7003;43448;52.264;20.644;2023-07-22T03:30:01;11;10;
57623;PMS7003;43448;52.264;20.644;2023-07-22T03:40:01;13;10;
57623;PMS7003;43448;52.264;20.644;2023-07-22T03:50:00;15;12;
57623;PMS7003;43448;52.264;20.644;2023-07-22T04:00:01;11;11;
57623;PMS7003;43448;52.264;20.644;2023-07-22T04:10:01;12;11;
57623;PMS7003;43448;52.264;20.644;2023-07-22T04:20:00;11;10;
57623;PMS7003;43448;52.264;20.644;2023-07-22T04:30:01;15;12;
57623;PMS7003;43448;52.264;20.644;2023-07-22T04:40:01;15;12;
57623;PMS7003;43448;52.264;20.644;2023-07-22T04:50:01;14;13;
57623;PMS7003;43448;52.264;20.644;2023-07-22T05:00:01;12;11;
57623;PMS7003;43448;52.264;20.644;2023-07-22T05:10:00;13;11;
57623;PMS7003;43448;52.264;20.644;2023-07-22T05:20:01;11;10;
57623;PMS7003;43448;52.264;20.644;2023-07-22T05:30:01;11;10;
57623;PMS7003;43448;52.264;20.644;2023-07-22T05:40:01;11;11;
57623;PMS7003;43448;52.264;20.644;2023-07-22T05:50:01;9;9;
57623;PMS7003;43448;52.264;20.644;2023-07-22T06:00:01;11;11;
57623;PMS7003;43448;52.264;20.644;2023-07-22T06:10:00;12;12;
57623;PMS7003;43448;52.264;20.644;2023-07-22T06:20:01;13;11;
57623;PMS7003;43448;52.264;20.644;2023-07-22T06:30:01;28;15;
57623;PMS7003;43448;52.264;20.644;2023-07-22T06:40:00;9;8;
57623;PMS7003;43448;52.264;20.644;2023-07-22T06:50:01;8;6;
57623;PMS7003;43448;52.264;20.644;2023-07-22T07:00:01;6;6;
57623;PMS7003;43448;52.264;20.644;2023-07-22T07:10:01;8;7;
57623;PMS7003;43448;52.264;20.644;2023-07-22T07:20:01;6;3;
57623;PMS7003;43448;52.264;20.644;2023-07-22T07:30:01;4;4;
57623;PMS7003;43448;52.264;20.644;2023-07-22T07:40:01;4;4;
57623;PMS7003;43448;52.264;20.644;2023-07-22T07:50:01;3;3;
57623;PMS7003;43448;52.264;20.644;2023-07-22T08:00:01;6;4;
57623;PMS7003;43448;52.264;20.644;2023-07-22T08:10:01;5;4;
57623;PMS7003;43448;52.264;20.644;2023-07-22T08:20:01;3;3;
57623;PMS7003;43448;52.264;20.644;2023-07-22T08:30:01;6;4;
57623;PMS7003;43448;52.264;20.644;2023-07-22T08:40:01;11;7;
57623;PMS7003;43448;52.264;20.644;2023-07-22T08:50:01;10;6;
57623;PMS7003;43448;52.264;20.644;2023-07-22T09:00:01;4;4;
57623;PMS7003;43448;52.264;20.644;2023-07-22T09:10:01;4;4;
57623;PMS7003;43448;52.264;20.644;2023-07-22T09:20:00;6;5;
57623;PMS7003;43448;52.264;20.644;2023-07-22T09:30:01;5;5;
57623;PMS7003;43448;52.264;20.644;2023-07-22T09:40:01;3;3;
57623;PMS7003;43448;52.264;20.644;2023-07-22T09:50:01;5;5;
57623;PMS7003;43448;52.264;20.644;2023-07-22T10:00:01;9;3;
57623;PMS7003;43448;52.264;20.644;2023-07-22T10:10:00;4;3;
57623;PMS7003;43448;52.264;20.644;2023-07-22T10:20:01;5;4;
57623;PMS7003;43448;52.264;20.644;2023-07-22T10:30:01;1;1;
57623;PMS7003;43448;52.264;20.644;2023-07-22T10:40:01;3;3;
57623;PMS7003;43448;52.264;20.644;2023-07-22T10:50:06;4;4;
57623;PMS7003;43448;52.264;20.644;2023-07-22T11:00:01;3;3;
57623;PMS7003;43448;52.264;20.644;2023-07-22T11:10:16;5;4;
57623;PMS7003;43448;52.264;20.644;2023-07-22T11:20:01;5;5;
57623;PMS7003;43448;52.264;20.644;2023-07-22T11:30:02;4;4;
57623;PMS7003;43448;52.264;20.644;2023-07-22T11:40:01;5;4;
57623;PMS7003;43448;52.264;20.644;2023-07-22T11:50:01;5;5;
57623;PMS7003;43448;52.264;20.644;2023-07-22T12:00:01;7;5;
57623;PMS7003;43448;52.264;20.644;2023-07-22T12:10:01;5;4;
57623;PMS7003;43448;52.264;20.644;2023-07-22T12:20:01;4;4;
57623;PMS7003;43448;52.264;20.644;2023-07-22T12:30:01;4;4;
57623;PMS7003;43448;52.264;20.644;2023-07-22T12:40:01;5;5;
57623;PMS7003;43448;52.264;20.644;2023-07-22T12:50:00;6;5;
57623;PMS7003;43448;52.264;20.644;2023-07-22T13:00:01;4;4;
57623;PMS7003;43448;52.264;20.644;2023-07-22T13:10:01;5;4;
57623;PMS7003;43448;52.264;20.644;2023-07-22T13:20:00;6;5;
57623;PMS7003;43448;52.264;20.644;2023-07-22T13:30:01;3;3;
57623;PMS7003;43448;52.264;20.644;2023-07-22T13:40:00;5;4;
57623;PMS7003;43448;52.264;20.644;2023-07-22T13:50:01;7;5;
57623;PMS7003;43448;52.264;20.644;2023-07-22T14:00:01;6;6;
57623;PMS7003;43448;52.264;20.644;2023-07-22T14:10:00;6;6;
57623;PMS7003;43448;52.264;20.644;2023-07-22T14:20:00;6;6;
57623;PMS7003;43448;52.264;20.644;2023-07-22T14:30:01;8;6;
57623;PMS7003;43448;52.264;20.644;2023-07-22T14:40:00;5;5;
57623;PMS7003;43448;52.264;20.644;2023-07-22T14:50:01;6;6;
57623;PMS7003;43448;52.264;20.644;2023-07-22T15:00:01;6;6;
57623;PMS7003;43448;52.264;20.644;2023-07-22T15:10:00;3;3;
57623;PMS7003;43448;52.264;20.644;2023-07-22T15:20:01;5;5;
57623;PMS7003;43448;52.264;20.644;2023-07-22T15:30:01;7;5;
57623;PMS7003;43448;52.264;20.644;2023-07-22T15:40:01;6;6;
57623;PMS7003;43448;52.264;20.644;2023-07-22T15:50:00;7;7;
57623;PMS7003;43448;52.264;20.644;2023-07-22T16:00:01;6;6;
57623;PMS7003;43448;52.264;20.644;2023-07-22T16:10:01;4;4;
57623;PMS7003;43448;52.264;20.644;2023-07-22T16:20:00;4;4;
57623;PMS7003;43448;52.264;20.644;2023-07-22T16:30:00;5;5;
57623;PMS7003;43448;52.264;20.644;2023-07-22T16:40:00;5;5;
57623;PMS7003;43448;52.264;20.644;2023-07-22T16:50:01;6;6;
57623;PMS7003;43448;52.264;20.644;2023-07-22T17:00:01;8;5;
57623;PMS7003;43448;52.264;20.644;2023-07-22T17:10:01;4;3;
57623;PMS7003;43448;52.264;20.644;2023-07-22T17:20:00;5;5;
57623;PMS7003;43448;52.264;20.644;2023-07-22T17:30:01;3;3;
57623;PMS7003;43448;52.264;20.644;2023-07-22T17:40:00;3;3;
57623;PMS7003;43448;52.264;20.644;2023-07-22T17:50:01;6;4;
57623;PMS7003;43448;52.264;20.644;2023-07-22T18:00:01;4;4;
57623;PMS7003;43448;52.264;20.644;2023-07-22T18:10:01;4;4;
57623;PMS7003;43448;52.264;20.644;2023-07-22T18:20:01;5;4;
57623;PMS7003;43448;52.264;20.644;2023-07-22T18:30:01;4;4;
57623;PMS7003;43448;52.264;20.644;2023-07-22T18:40:01;3;3;
57623;PMS7003;43448;52.264;20.644;2023-07-22T18:50:01;3;2;
57623;PMS7003;43448;52.264;20.644;2023-07-22T19:00:01;3;3;
57623;PMS7003;43448;52.264;20.644;2023-07-22T19:10:01;3;3;
57623;PMS7003;43448;52.264;20.644;2023-07-22T19:20:01;3;3;
57623;PMS7003;43448;52.264;20.644;2023-07-22T19:30:01;4;3;
57623;PMS7003;43448;52.264;20.644;2023-07-22T19:40:01;5;5;
57623;PMS7003;43448;52.264;20.644;2023-07-22T19:50:01;11;10;
57623;PMS7003;43448;52.264;20.644;2023-07-22T20:00:01;9;9;
57623;PMS7003;43448;52.264;20.644;2023-07-22T20:10:00;9;9;
57623;PMS7003;43448;52.264;20.644;2023-07-22T20:20:01;11;8;
57623;PMS7003;43448;52.264;20.644;2023-07-22T20:30:01;10;8;
57623;PMS7003;43448;52.264;20.644;2023-07-22T20:40:01;13;12;
57623;PMS7003;43448;52.264;20.644;2023-07-22T20:50:01;9;6;
57623;PMS7003;43448;52.264;20.644;2023-07-22T21:00:01;14;12;
57623;PMS7003;43448;52.264;20.644;2023-07-22T21:10:00;15;15;
57623;PMS7003;43448;52.264;20.644;2023-07-22T21:20:01;12;10;
57623;PMS7003;43448;52.264;20.644;2023-07-22T21:30:00;13;11;
57623;PMS7003;43448;52.264;20.644;2023-07-22T21:40:00;11;9;
57623;PMS7003;43448;52.264;20.644;2023-07-22T21:50:00;13;10;
57623;PMS7003;43448;52.264;20.644;2023-07-22T22:00:01;12;11;
57623;PMS7003;43448;52.264;20.644;2023-07-22T22:10:01;12;11;
57623;PMS7003;43448;52.264;20.644;2023-07-22T22:20:00;14;11;
57623;PMS7003;43448;52.264;20.644;2023-07-22T22:30:01;15;12;
57623;PMS7003;43448;52.264;20.644;2023-07-22T22:40:01;11;10;
57623;PMS7003;43448;52.264;20.644;2023-07-22T22:50:01;16;13;
57623;PMS7003;43448;52.264;20.644;2023-07-22T23:00:01;13;13;
57623;PMS7003;43448;52.264;20.644;2023-07-22T23:10:00;13;13;
57623;PMS7003;43448;52.264;20.644;2023-07-22T23:20:01;11;11;
57623;PMS7003;43448;52.264;20.644;2023-07-22T23:30:01;16;14;
57623;PMS7003;43448;52.264;20.644;2023-07-22T23:40:01;15;12;
57623;PMS7003;43448;52.264;20.644;2023-07-22T23:50:01;12;11;
